Terminal Aerodrome Forecast
Issued by NWS

Home | Current Version | Previous Version | Text Only | Print | Product List | Glossary On
Versions: 1 2 3 4 5 6 7 8 9 10 11 12 13
000
FTUS42 KTAE 200900 AAA
TAFECP
TAF AMD
KECP 200948Z 2010/2106 02004KT P6SM SKC
     FM201100 04006KT P6SM BKN008
     FM201400 06007KT P6SM SCT030=

USA.gov is the U.S. government's official web portal to all federal, state and local government web resources and services.